createdAt,value
2023-07-05T00:00:38.934Z,2525.00
2023-07-05T00:01:38.910Z,2486.00
2023-07-05T00:02:38.914Z,2433.00
2023-07-05T00:03:38.885Z,2411.00
2023-07-05T00:04:38.855Z,2383.00
2023-07-05T00:05:38.865Z,2393.00
2023-07-05T00:06:38.838Z,2375.00
2023-07-05T00:07:38.810Z,2346.00
2023-07-05T00:08:38.805Z,2340.00
2023-07-05T00:09:38.757Z,2345.00
2023-07-05T00:10:38.756Z,2368.00
2023-07-05T00:11:38.725Z,2368.00
2023-07-05T00:12:38.692Z,2373.00
2023-07-05T00:13:38.686Z,2377.00
2023-07-05T00:14:38.631Z,2348.00
2023-07-05T00:15:38.656Z,2352.00
2023-07-05T00:16:38.675Z,2366.00
2023-07-05T00:17:38.575Z,2338.00
2023-07-05T00:18:38.567Z,2357.00
2023-07-05T00:19:38.542Z,2364.00
2023-07-05T00:20:38.529Z,2327.00
2023-07-05T00:21:38.507Z,2341.00
2023-07-05T00:22:38.511Z,2325.00
2023-07-05T00:23:38.478Z,2328.00
2023-07-05T00:24:38.469Z,2308.00
2023-07-05T00:25:38.465Z,2342.00
2023-07-05T00:26:38.413Z,2377.00
2023-07-05T00:27:38.408Z,2369.00
2023-07-05T00:28:38.384Z,2354.00
2023-07-05T00:29:38.355Z,2374.00
2023-07-05T00:30:38.344Z,2395.00
2023-07-05T00:31:38.367Z,2402.00
2023-07-05T00:32:38.352Z,2402.00
2023-07-05T00:33:38.317Z,2388.00
2023-07-05T00:34:38.298Z,2388.00
2023-07-05T00:35:38.255Z,2393.00
2023-07-05T00:36:38.254Z,2395.00
2023-07-05T00:37:38.227Z,2392.00
2023-07-05T00:38:38.230Z,2397.00
2023-07-05T00:39:38.191Z,2357.00
2023-07-05T00:40:38.174Z,2362.00
2023-07-05T00:41:38.171Z,2349.00
2023-07-05T00:42:38.133Z,2316.00
2023-07-05T00:43:38.185Z,2317.00
2023-07-05T00:44:38.219Z,2314.00
2023-07-05T00:45:38.126Z,2304.00
2023-07-05T00:46:38.181Z,2307.00
2023-07-05T00:47:38.078Z,2334.00
2023-07-05T00:48:38.078Z,2322.00
2023-07-05T00:49:38.003Z,2335.00
2023-07-05T00:50:37.974Z,2327.00
2023-07-05T00:51:37.971Z,2357.00
2023-07-05T00:52:37.945Z,2350.00
2023-07-05T00:53:38.024Z,2357.00
2023-07-05T00:54:37.914Z,2356.00
2023-07-05T00:55:37.873Z,2357.00
2023-07-05T00:56:37.853Z,2348.00
2023-07-05T00:57:37.825Z,2357.00
2023-07-05T00:58:37.812Z,2358.00
2023-07-05T00:59:37.790Z,2351.00
2023-07-05T01:00:37.778Z,2361.00
2023-07-05T01:01:46.679Z,2373.00
2023-07-05T01:02:38.763Z,2374.00
2023-07-05T01:03:37.697Z,2379.00
2023-07-05T01:04:37.658Z,2383.00
2023-07-05T01:05:37.665Z,2380.00
2023-07-05T01:06:37.619Z,2384.00
2023-07-05T01:07:37.589Z,2370.00
2023-07-05T01:08:37.616Z,2366.00
2023-07-05T01:09:37.554Z,2375.00
2023-07-05T01:10:37.559Z,2396.00
2023-07-05T01:11:37.497Z,2385.00
2023-07-05T01:12:37.454Z,2372.00
2023-07-05T01:13:37.475Z,2373.00
2023-07-05T01:14:37.422Z,2389.00
2023-07-05T01:15:37.394Z,2429.00
2023-07-05T01:16:37.378Z,2446.00
2023-07-05T01:17:37.407Z,2419.00
2023-07-05T01:18:37.357Z,2411.00
2023-07-05T01:19:37.326Z,2407.00
2023-07-05T01:20:37.303Z,2407.00
2023-07-05T01:21:37.287Z,2430.00
2023-07-05T01:22:37.258Z,2453.00
2023-07-05T01:23:37.248Z,2479.00
2023-07-05T01:24:37.234Z,2443.00
2023-07-05T01:25:37.208Z,2461.00
2023-07-05T01:26:37.204Z,2438.00
2023-07-05T01:27:37.176Z,2440.00
2023-07-05T01:28:37.163Z,2414.00
2023-07-05T01:29:37.152Z,2411.00
2023-07-05T01:30:37.135Z,2423.00
2023-07-05T01:31:37.152Z,2417.00
2023-07-05T01:32:37.219Z,2419.00
2023-07-05T01:33:37.096Z,2398.00
2023-07-05T01:34:37.088Z,2414.00
2023-07-05T01:35:37.077Z,2394.00
2023-07-05T01:36:37.059Z,2391.00
2023-07-05T01:37:37.048Z,2394.00
2023-07-05T01:38:37.046Z,2409.00
2023-07-05T01:39:37.049Z,2413.00
2023-07-05T01:40:37.043Z,2411.00
2023-07-05T01:41:37.010Z,2413.00
2023-07-05T01:42:36.985Z,2416.00
2023-07-05T01:43:36.984Z,2408.00
2023-07-05T01:44:36.969Z,2413.00
2023-07-05T01:45:36.962Z,2417.00
2023-07-05T01:46:36.971Z,2423.00
2023-07-05T01:47:36.956Z,2433.00
2023-07-05T01:48:36.946Z,2428.00
2023-07-05T01:49:36.874Z,2460.00
2023-07-05T01:50:36.853Z,2458.00
2023-07-05T01:51:36.852Z,2474.00
2023-07-05T01:52:36.817Z,2451.00
2023-07-05T01:53:36.796Z,2487.00
2023-07-05T01:54:36.770Z,2459.00
2023-07-05T01:55:36.761Z,2439.00
2023-07-05T01:56:36.738Z,2443.00
2023-07-05T01:57:36.732Z,2444.00
2023-07-05T01:58:36.702Z,2447.00
2023-07-05T01:59:36.684Z,2446.00
2023-07-05T02:00:36.692Z,2424.00
2023-07-05T02:01:36.643Z,2430.00
2023-07-05T02:02:36.691Z,2420.00
2023-07-05T02:03:36.596Z,2405.00
2023-07-05T02:04:36.601Z,2416.00
2023-07-05T02:05:36.591Z,2404.00
2023-07-05T02:06:36.570Z,2396.00
2023-07-05T02:07:36.535Z,2441.00
2023-07-05T02:08:36.513Z,2418.00
2023-07-05T02:09:36.504Z,2404.00
2023-07-05T02:10:36.489Z,2425.00
2023-07-05T02:11:36.482Z,2411.00
2023-07-05T02:12:36.466Z,2395.00
2023-07-05T02:13:36.482Z,2405.00
2023-07-05T02:14:36.491Z,2409.00
2023-07-05T02:15:36.443Z,2426.00
2023-07-05T02:16:36.426Z,2433.00
2023-07-05T02:17:36.436Z,2440.00
2023-07-05T02:18:36.402Z,2428.00
2023-07-05T02:19:36.443Z,2421.00
2023-07-05T02:20:36.379Z,2435.00
2023-07-05T02:21:36.367Z,2429.00
2023-07-05T02:22:36.353Z,2433.00
2023-07-05T02:23:36.323Z,2439.00
2023-07-05T02:24:36.322Z,2439.00
2023-07-05T02:25:36.312Z,2420.00
2023-07-05T02:26:36.308Z,2410.00
2023-07-05T02:27:36.337Z,2409.00
2023-07-05T02:28:36.302Z,2413.00
2023-07-05T02:29:36.318Z,2446.00
2023-07-05T02:30:36.335Z,2429.00
2023-07-05T02:31:36.304Z,2400.00
2023-07-05T02:32:36.320Z,2386.00
2023-07-05T02:33:36.290Z,2385.00
2023-07-05T02:34:36.290Z,2407.00
2023-07-05T02:35:36.286Z,2433.00
2023-07-05T02:36:37.206Z,2421.00
2023-07-05T02:37:36.258Z,2408.00
2023-07-05T02:38:36.260Z,2374.00
2023-07-05T02:39:36.277Z,2375.00
2023-07-05T02:40:36.279Z,2415.00
2023-07-05T02:41:36.288Z,2398.00
2023-07-05T02:42:36.239Z,2395.00
2023-07-05T02:43:36.266Z,2375.00
2023-07-05T02:44:36.271Z,2367.00
2023-07-05T02:45:36.295Z,2339.00
2023-07-05T02:46:36.276Z,2340.00
2023-07-05T02:47:36.329Z,2346.00
2023-07-05T02:48:36.282Z,2334.00
2023-07-05T02:49:36.273Z,2299.00
2023-07-05T02:50:36.267Z,2300.00
2023-07-05T02:51:36.282Z,2309.00
2023-07-05T02:52:36.275Z,2287.00
2023-07-05T02:53:36.268Z,2291.00
2023-07-05T02:54:36.335Z,2293.00
2023-07-05T02:55:36.278Z,2296.00
2023-07-05T02:56:36.272Z,2328.00
2023-07-05T02:57:36.275Z,2319.00
2023-07-05T02:58:36.262Z,2355.00
2023-07-05T02:59:36.284Z,2341.00
2023-07-05T03:00:36.262Z,2364.00
2023-07-05T03:01:36.302Z,2355.00
2023-07-05T03:02:36.275Z,2317.00
2023-07-05T03:03:36.259Z,2325.00
2023-07-05T03:04:36.307Z,2316.00
2023-07-05T03:05:36.243Z,2301.00
2023-07-05T03:06:36.254Z,2280.00
2023-07-05T03:07:36.246Z,2300.00
2023-07-05T03:08:36.245Z,2323.00
2023-07-05T03:09:36.262Z,2312.00
2023-07-05T03:10:36.253Z,2329.00
2023-07-05T03:11:36.257Z,2294.00
2023-07-05T03:12:36.257Z,2297.00
2023-07-05T03:13:36.303Z,2311.00
2023-07-05T03:14:36.279Z,2301.00
2023-07-05T03:15:36.268Z,2271.00
2023-07-05T03:16:36.299Z,2254.00
2023-07-05T03:17:36.303Z,2250.00
2023-07-05T03:18:36.259Z,2247.00
2023-07-05T03:19:36.282Z,2252.00
2023-07-05T03:20:36.269Z,2226.00
2023-07-05T03:21:36.288Z,2224.00
2023-07-05T03:22:36.261Z,2237.00
2023-07-05T03:23:36.271Z,2243.00
2023-07-05T03:24:36.281Z,2254.00
2023-07-05T03:25:36.275Z,2234.00
2023-07-05T03:26:36.277Z,2274.00
2023-07-05T03:27:36.283Z,2272.00
2023-07-05T03:28:36.280Z,2253.00
2023-07-05T03:29:36.257Z,2253.00
2023-07-05T03:30:36.239Z,2238.00
2023-07-05T03:31:36.259Z,2209.00
2023-07-05T03:32:36.238Z,2223.00
2023-07-05T03:33:36.201Z,2247.00
2023-07-05T03:34:36.176Z,2241.00
2023-07-05T03:35:36.174Z,2243.00
2023-07-05T03:36:36.186Z,2245.00
2023-07-05T03:37:36.132Z,2212.00
2023-07-05T03:38:36.111Z,2211.00
2023-07-05T03:39:36.104Z,2245.00
2023-07-05T03:40:36.078Z,2230.00
2023-07-05T03:41:36.108Z,2219.00
2023-07-05T03:42:36.044Z,2208.00
2023-07-05T03:43:36.036Z,2205.00
2023-07-05T03:44:36.015Z,2242.00
2023-07-05T03:45:36.029Z,2206.00
2023-07-05T03:46:35.991Z,2220.00
2023-07-05T03:47:36.022Z,2220.00
2023-07-05T03:48:38.101Z,2192.00
2023-07-05T03:49:35.923Z,2206.00
2023-07-05T03:50:35.895Z,2182.00
2023-07-05T03:51:35.894Z,2183.00
2023-07-05T03:52:35.898Z,2190.00
2023-07-05T03:53:35.843Z,2195.00
2023-07-05T03:54:35.819Z,2232.00
2023-07-05T03:55:35.815Z,2240.00
2023-07-05T03:56:35.775Z,2253.00
2023-07-05T03:57:35.759Z,2239.00
2023-07-05T03:58:35.730Z,2262.00
2023-07-05T03:59:35.720Z,2233.00
2023-07-05T04:00:35.701Z,2224.00
2023-07-05T04:01:35.732Z,2182.00
2023-07-05T04:02:35.721Z,2201.00
2023-07-05T04:03:35.709Z,2183.00
2023-07-05T04:04:35.648Z,2205.00
2023-07-05T04:05:35.616Z,2203.00
2023-07-05T04:06:35.608Z,2208.00
2023-07-05T04:07:35.582Z,2196.00
2023-07-05T04:08:35.569Z,2216.00
2023-07-05T04:09:35.550Z,2181.00
2023-07-05T04:10:35.522Z,2187.00
2023-07-05T04:11:35.507Z,2175.00
2023-07-05T04:12:35.478Z,2160.00
2023-07-05T04:13:35.522Z,2141.00
2023-07-05T04:14:35.456Z,2170.00
2023-07-05T04:15:35.490Z,2166.00
2023-07-05T04:16:35.484Z,2188.00
2023-07-05T04:17:35.510Z,2218.00
2023-07-05T04:18:35.494Z,2230.00
2023-07-05T04:19:35.492Z,2219.00
2023-07-05T04:20:35.492Z,2199.00
2023-07-05T04:21:35.605Z,2190.00
2023-07-05T04:22:35.516Z,2163.00
2023-07-05T04:23:35.525Z,2154.00
2023-07-05T04:24:35.530Z,2175.00
2023-07-05T04:25:35.538Z,2183.00
2023-07-05T04:26:35.549Z,2183.00
2023-07-05T04:27:35.547Z,2159.00
2023-07-05T04:28:35.557Z,2157.00
2023-07-05T04:29:35.608Z,2171.00
2023-07-05T04:30:35.590Z,2159.00
2023-07-05T04:31:35.597Z,2154.00
2023-07-05T04:32:35.603Z,2143.00
2023-07-05T04:33:35.591Z,2166.00
2023-07-05T04:34:37.031Z,2142.00
2023-07-05T04:35:35.619Z,2155.00
2023-07-05T04:36:35.621Z,2184.00
2023-07-05T04:37:37.969Z,2179.00
2023-07-05T04:38:35.588Z,2160.00
2023-07-05T04:39:35.591Z,2137.00
2023-07-05T04:40:35.560Z,2166.00
2023-07-05T04:41:35.533Z,2183.00
2023-07-05T04:42:35.508Z,2211.00
2023-07-05T04:43:35.490Z,2171.00
2023-07-05T04:44:35.462Z,2169.00
2023-07-05T04:45:35.488Z,2169.00
2023-07-05T04:46:35.456Z,2173.00
2023-07-05T04:47:35.476Z,2184.00
2023-07-05T04:48:35.402Z,2196.00
2023-07-05T04:49:35.368Z,2207.00
2023-07-05T04:50:35.363Z,2192.00
2023-07-05T04:51:35.345Z,2177.00
2023-07-05T04:52:35.317Z,2172.00
2023-07-05T04:53:35.305Z,2170.00
2023-07-05T04:54:35.286Z,2186.00
2023-07-05T04:55:35.291Z,2177.00
2023-07-05T04:56:35.243Z,2178.00
2023-07-05T04:57:35.215Z,2186.00
2023-07-05T04:58:35.196Z,2189.00
2023-07-05T04:59:35.185Z,2196.00
2023-07-05T05:00:35.185Z,2164.00
2023-07-05T05:01:35.230Z,2171.00
2023-07-05T05:02:35.210Z,2168.00
2023-07-05T05:03:35.122Z,2143.00
2023-07-05T05:04:35.124Z,2149.00
2023-07-05T05:05:35.082Z,2142.00
2023-07-05T05:06:35.057Z,2176.00
2023-07-05T05:07:35.047Z,2167.00
2023-07-05T05:08:35.029Z,2153.00
2023-07-05T05:09:35.003Z,2158.00
2023-07-05T05:10:34.994Z,2148.00
2023-07-05T05:11:34.957Z,2149.00
2023-07-05T05:12:34.953Z,2152.00
2023-07-05T05:13:34.958Z,2155.00
2023-07-05T05:14:34.935Z,2124.00
2023-07-05T05:15:34.928Z,2138.00
2023-07-05T05:16:34.946Z,2108.00
2023-07-05T05:17:34.926Z,2131.00
2023-07-05T05:18:34.887Z,2143.00
2023-07-05T05:19:34.877Z,2143.00
2023-07-05T05:20:34.841Z,2116.00
2023-07-05T05:21:34.836Z,2119.00
2023-07-05T05:22:34.842Z,2106.00
2023-07-05T05:23:34.815Z,2124.00
2023-07-05T05:24:34.806Z,2118.00
2023-07-05T05:25:34.878Z,2122.00
2023-07-05T05:26:34.791Z,2143.00
2023-07-05T05:27:34.805Z,2109.00
2023-07-05T05:28:34.836Z,2120.00
2023-07-05T05:29:34.822Z,2095.00
2023-07-05T05:30:34.950Z,2132.00
2023-07-05T05:31:34.882Z,2188.00
2023-07-05T05:32:35.030Z,2220.00
2023-07-05T05:33:34.843Z,2260.00
2023-07-05T05:34:34.925Z,2301.00
2023-07-05T05:35:34.799Z,2374.00
2023-07-05T05:36:34.831Z,2377.00
2023-07-05T05:37:34.805Z,2389.00
2023-07-05T05:38:34.732Z,2422.00
2023-07-05T05:39:34.704Z,2497.00
2023-07-05T05:40:34.688Z,2612.00
2023-07-05T05:41:34.662Z,2384.00
2023-07-05T05:42:34.668Z,2421.00
2023-07-05T05:43:34.612Z,2496.00
2023-07-05T05:44:34.573Z,2613.00
2023-07-05T05:45:34.572Z,2789.00
2023-07-05T05:46:34.671Z,2834.00
2023-07-05T05:47:36.420Z,2853.00
2023-07-05T05:48:34.520Z,2870.00
2023-07-05T05:49:34.481Z,2902.00
2023-07-05T05:50:34.483Z,2944.00
2023-07-05T05:51:34.451Z,2973.00
2023-07-05T05:52:34.560Z,2988.00
2023-07-05T05:53:34.413Z,3001.00
2023-07-05T05:54:34.392Z,2970.00
2023-07-05T05:55:34.405Z,2960.00
2023-07-05T05:56:34.355Z,2975.00
2023-07-05T05:57:34.354Z,2937.00
2023-07-05T05:58:34.458Z,2847.00
2023-07-05T05:59:34.297Z,2839.00
2023-07-05T06:00:34.280Z,2765.00
2023-07-05T06:01:34.272Z,2737.00
2023-07-05T06:02:34.352Z,2739.00
2023-07-05T06:03:34.807Z,2732.00
2023-07-05T06:04:34.200Z,2725.00
2023-07-05T06:05:34.169Z,2721.00
2023-07-05T06:06:34.211Z,2693.00
2023-07-05T06:07:34.144Z,2689.00
2023-07-05T06:08:34.102Z,2676.00
2023-07-05T06:09:34.111Z,2649.00
2023-07-05T06:10:34.155Z,2615.00
2023-07-05T06:11:34.049Z,2600.00
2023-07-05T06:12:34.045Z,2576.00
2023-07-05T06:13:34.201Z,2588.00
2023-07-05T06:14:34.016Z,2617.00
2023-07-05T06:15:33.981Z,2623.00
2023-07-05T06:16:34.000Z,2610.00
2023-07-05T06:17:33.995Z,2610.00
2023-07-05T06:18:33.998Z,2616.00
2023-07-05T06:19:33.925Z,2640.00
2023-07-05T06:20:33.911Z,2641.00
2023-07-05T06:21:33.911Z,2640.00
2023-07-05T06:22:33.866Z,2625.00
2023-07-05T06:23:33.877Z,2615.00
2023-07-05T06:24:33.818Z,2633.00
2023-07-05T06:25:33.786Z,2619.00
2023-07-05T06:26:33.777Z,2609.00
2023-07-05T06:27:33.750Z,2620.00
2023-07-05T06:28:33.782Z,2607.00
2023-07-05T06:29:33.721Z,2607.00
2023-07-05T06:30:33.738Z,2575.00
2023-07-05T06:31:33.705Z,2581.00
2023-07-05T06:32:33.695Z,2556.00
2023-07-05T06:33:33.602Z,2557.00
2023-07-05T06:34:33.593Z,2586.00
2023-07-05T06:35:33.567Z,2535.00
2023-07-05T06:36:33.561Z,2575.00
2023-07-05T06:37:33.541Z,2546.00
2023-07-05T06:38:33.542Z,2496.00
2023-07-05T06:39:33.481Z,2497.00
2023-07-05T06:40:33.459Z,2499.00
2023-07-05T06:41:33.499Z,2514.00
2023-07-05T06:42:33.415Z,2486.00
2023-07-05T06:43:33.394Z,2462.00
2023-07-05T06:44:33.395Z,2434.00
2023-07-05T06:45:33.332Z,2440.00
2023-07-05T06:46:33.417Z,2459.00
2023-07-05T06:47:33.355Z,2471.00
2023-07-05T06:48:33.254Z,2493.00
2023-07-05T06:49:33.228Z,2455.00
2023-07-05T06:50:33.295Z,2429.00
2023-07-05T06:51:33.188Z,2416.00
2023-07-05T06:52:33.170Z,2399.00
2023-07-05T06:54:34.188Z,2398.00
2023-07-05T06:55:33.698Z,2393.00
2023-07-05T06:56:33.066Z,2388.00
2023-07-05T06:57:33.030Z,2410.00
2023-07-05T06:58:33.027Z,2458.00
2023-07-05T06:59:32.994Z,2472.00
2023-07-05T07:00:32.962Z,2495.00
2023-07-05T07:01:33.046Z,2531.00
2023-07-05T07:02:32.967Z,2504.00
2023-07-05T07:03:32.972Z,2506.00
2023-07-05T07:04:32.927Z,2499.00
2023-07-05T07:05:32.854Z,2512.00
2023-07-05T07:06:32.811Z,2487.00
2023-07-05T07:07:32.901Z,2492.00
2023-07-05T07:08:32.747Z,2519.00
2023-07-05T07:09:32.807Z,2522.00
2023-07-05T07:10:32.700Z,2493.00
2023-07-05T07:11:32.665Z,2508.00
2023-07-05T07:12:32.641Z,2514.00
2023-07-05T07:13:34.773Z,2482.00
2023-07-05T07:14:32.578Z,2482.00
2023-07-05T07:15:32.560Z,2462.00
2023-07-05T07:16:32.545Z,2483.00
2023-07-05T07:17:32.525Z,2469.00
2023-07-05T07:18:32.478Z,2469.00
2023-07-05T07:19:32.434Z,2445.00
2023-07-05T07:20:32.424Z,2455.00
2023-07-05T07:21:32.396Z,2421.00
2023-07-05T07:22:32.473Z,2391.00
2023-07-05T07:23:32.331Z,2346.00
2023-07-05T07:24:32.333Z,2376.00
2023-07-05T07:25:32.291Z,2351.00
2023-07-05T07:26:32.275Z,2325.00
2023-07-05T07:27:32.230Z,2326.00
2023-07-05T07:28:32.224Z,2323.00
2023-07-05T07:29:32.186Z,2284.00
2023-07-05T07:30:32.146Z,2275.00
2023-07-05T07:31:32.140Z,2265.00
2023-07-05T07:32:32.159Z,2261.00
2023-07-05T07:33:32.096Z,2263.00
2023-07-05T07:34:32.042Z,2273.00
2023-07-05T07:35:32.009Z,2293.00
2023-07-05T07:36:32.049Z,2312.00
2023-07-05T07:37:31.955Z,2360.00
2023-07-05T07:38:31.950Z,2361.00
2023-07-05T07:39:31.894Z,2366.00
2023-07-05T07:40:31.852Z,2379.00
2023-07-05T07:41:34.352Z,2378.00
2023-07-05T07:42:31.789Z,2382.00
2023-07-05T07:43:31.763Z,2376.00
2023-07-05T07:44:31.747Z,2351.00
2023-07-05T07:45:31.700Z,2342.00
2023-07-05T07:46:31.710Z,2272.00
2023-07-05T07:47:31.857Z,2299.00
2023-07-05T07:48:31.620Z,2307.00
2023-07-05T07:49:31.619Z,2301.00
2023-07-05T07:50:31.559Z,2262.00
2023-07-05T07:52:31.547Z,2277.00
2023-07-05T07:53:31.460Z,2253.00
2023-07-05T07:54:31.470Z,2241.00
2023-07-05T07:55:31.501Z,2250.00
2023-07-05T07:56:31.413Z,2255.00
2023-07-05T07:57:32.367Z,2258.00
2023-07-05T07:58:31.338Z,2262.00
2023-07-05T07:59:31.306Z,2269.00
2023-07-05T08:00:31.244Z,2270.00
2023-07-05T08:01:31.253Z,2258.00
2023-07-05T08:02:31.229Z,2246.00
2023-07-05T08:03:31.237Z,2254.00
2023-07-05T08:04:31.182Z,2268.00
2023-07-05T08:05:31.885Z,2278.00
2023-07-05T08:06:31.048Z,2279.00
2023-07-05T08:07:31.865Z,2282.00
2023-07-05T08:08:31.073Z,2274.00
2023-07-05T08:09:31.039Z,2271.00
2023-07-05T08:10:30.955Z,2286.00
2023-07-05T08:11:30.889Z,2288.00
2023-07-05T08:12:30.879Z,2300.00
2023-07-05T08:13:30.863Z,2286.00
2023-07-05T08:14:30.795Z,2295.00
2023-07-05T08:15:31.356Z,2305.00
2023-07-05T08:16:30.741Z,2387.00
2023-07-05T08:17:30.739Z,2388.00
2023-07-05T08:18:30.642Z,2378.00
2023-07-05T08:19:30.612Z,2387.00
2023-07-05T08:20:30.561Z,2356.00
2023-07-05T08:21:30.686Z,2367.00
2023-07-05T08:22:30.778Z,2323.00
2023-07-05T08:23:30.475Z,2280.00
2023-07-05T08:24:30.439Z,2313.00
2023-07-05T08:25:30.402Z,2316.00
2023-07-05T08:26:30.377Z,2323.00
2023-07-05T08:27:30.352Z,2345.00
2023-07-05T08:28:30.320Z,2370.00
2023-07-05T08:29:30.282Z,2406.00
2023-07-05T08:30:30.250Z,2418.00
2023-07-05T08:31:30.261Z,2417.00
2023-07-05T08:32:31.683Z,2435.00
2023-07-05T08:33:30.880Z,2449.00
2023-07-05T08:34:30.119Z,2463.00
2023-07-05T08:35:30.095Z,2461.00
2023-07-05T08:36:30.061Z,2475.00
2023-07-05T08:37:30.030Z,2464.00
2023-07-05T08:38:29.996Z,2476.00
2023-07-05T08:39:31.213Z,2459.00
2023-07-05T08:40:29.932Z,2441.00
2023-07-05T08:41:29.899Z,2422.00
2023-07-05T08:42:29.859Z,2442.00
2023-07-05T08:43:29.833Z,2426.00
2023-07-05T08:44:29.800Z,2430.00
2023-07-05T08:45:29.814Z,2409.00
2023-07-05T08:46:29.732Z,2401.00
2023-07-05T08:47:29.748Z,2381.00
2023-07-05T08:48:29.668Z,2369.00
2023-07-05T08:49:29.645Z,2365.00
2023-07-05T08:50:32.782Z,2344.00
2023-07-05T08:51:29.579Z,2344.00
2023-07-05T08:52:29.550Z,2344.00
2023-07-05T08:53:29.493Z,2319.00
2023-07-05T08:54:29.640Z,2307.00
2023-07-05T08:55:29.438Z,2295.00
2023-07-05T08:56:29.363Z,2284.00
2023-07-05T08:57:29.328Z,2266.00
2023-07-05T08:58:29.420Z,2274.00
2023-07-05T08:59:29.311Z,2235.00
2023-07-05T09:00:29.239Z,2223.00
2023-07-05T09:01:29.348Z,2222.00
2023-07-05T09:02:29.356Z,2202.00
2023-07-05T09:03:29.290Z,2196.00
2023-07-05T09:04:29.149Z,2190.00
2023-07-05T09:05:29.118Z,2181.00
2023-07-05T09:06:29.084Z,2180.00
2023-07-05T09:07:29.065Z,2167.00
2023-07-05T09:08:29.039Z,2156.00
2023-07-05T09:09:28.985Z,2131.00
2023-07-05T09:10:28.958Z,2128.00
2023-07-05T09:11:28.982Z,2094.00
2023-07-05T09:12:28.996Z,2076.00
2023-07-05T09:13:29.099Z,2085.00
2023-07-05T09:14:29.184Z,2074.00
2023-07-05T09:15:29.099Z,2053.00
2023-07-05T09:16:29.165Z,2041.00
2023-07-05T09:17:29.513Z,2033.00
2023-07-05T09:18:29.173Z,2001.00
2023-07-05T09:19:29.242Z,2005.00
2023-07-05T09:20:29.239Z,1988.00
2023-07-05T09:21:29.281Z,1985.00
2023-07-05T09:22:29.345Z,1991.00
2023-07-05T09:23:29.353Z,1992.00
2023-07-05T09:24:29.364Z,1992.00
2023-07-05T09:25:40.934Z,1983.00
2023-07-05T09:26:31.481Z,1968.00
2023-07-05T09:27:29.320Z,1958.00
2023-07-05T09:28:29.304Z,1950.00
2023-07-05T09:29:29.259Z,1933.00
2023-07-05T09:30:29.232Z,1906.00
2023-07-05T09:31:29.326Z,1906.00
2023-07-05T09:32:29.497Z,1913.00
2023-07-05T09:33:29.324Z,1906.00
2023-07-05T09:34:29.354Z,1899.00
2023-07-05T09:35:29.413Z,1905.00
2023-07-05T09:36:29.431Z,1910.00
2023-07-05T09:37:30.949Z,1921.00
2023-07-05T09:38:29.465Z,1911.00
2023-07-05T09:39:29.487Z,1896.00
2023-07-05T09:40:29.557Z,1873.00
2023-07-05T09:41:29.541Z,1870.00
2023-07-05T09:42:29.580Z,1868.00
2023-07-05T09:43:32.268Z,1870.00
2023-07-05T09:44:29.637Z,1875.00
2023-07-05T09:45:29.488Z,1871.00
2023-07-05T09:46:29.458Z,1870.00
2023-07-05T09:47:29.443Z,1832.00
2023-07-05T09:48:29.383Z,1850.00
2023-07-05T09:49:31.462Z,1861.00
2023-07-05T09:50:29.317Z,1861.00
2023-07-05T09:51:29.314Z,1863.00
2023-07-05T09:52:29.327Z,1852.00
2023-07-05T09:53:29.335Z,1836.00
2023-07-05T09:54:29.363Z,1840.00
2023-07-05T09:55:31.875Z,1810.00
2023-07-05T09:56:29.346Z,1828.00
2023-07-05T09:57:29.340Z,1845.00
2023-07-05T09:58:29.288Z,1829.00
2023-07-05T09:59:29.243Z,1845.00
2023-07-05T10:00:29.204Z,1858.00
2023-07-05T10:01:29.837Z,1858.00
2023-07-05T10:02:29.312Z,1859.00
2023-07-05T10:03:29.230Z,1860.00
2023-07-05T10:04:29.130Z,1862.00
2023-07-05T10:05:29.072Z,1855.00
2023-07-05T10:06:29.015Z,1809.00
2023-07-05T10:07:29.425Z,1820.00
2023-07-05T10:08:29.024Z,1780.00
2023-07-05T10:09:28.940Z,1771.00
2023-07-05T10:10:28.881Z,1752.00
2023-07-05T10:11:28.976Z,1754.00
2023-07-05T10:12:28.866Z,1779.00
2023-07-05T10:13:31.939Z,1757.00
2023-07-05T10:14:28.850Z,1690.00
2023-07-05T10:15:28.747Z,1700.00
2023-07-05T10:16:28.849Z,1707.00
2023-07-05T10:17:28.791Z,1689.00
2023-07-05T10:18:28.637Z,1712.00
2023-07-05T10:19:32.032Z,1741.00
2023-07-05T10:20:28.599Z,1742.00
2023-07-05T10:21:28.537Z,1746.00
2023-07-05T10:22:28.531Z,1760.00
2023-07-05T10:23:28.682Z,1777.00
2023-07-05T10:24:28.447Z,1738.00
2023-07-05T10:25:30.971Z,1768.00
2023-07-05T10:26:28.336Z,1826.00
2023-07-05T10:27:28.369Z,1850.00
2023-07-05T10:28:28.341Z,1796.00
2023-07-05T10:29:28.237Z,1818.00
2023-07-05T10:30:28.212Z,1841.00
2023-07-05T10:31:28.269Z,1856.00
2023-07-05T10:32:28.484Z,1864.00
2023-07-05T10:33:28.105Z,1886.00
2023-07-05T10:34:28.077Z,1877.00
2023-07-05T10:35:28.034Z,1875.00
2023-07-05T10:36:28.010Z,1858.00
2023-07-05T10:37:27.971Z,1861.00
2023-07-05T10:38:28.005Z,1864.00
2023-07-05T10:39:27.912Z,1838.00
2023-07-05T10:40:27.886Z,1816.00
2023-07-05T10:41:27.831Z,1819.00
2023-07-05T10:42:27.820Z,1802.00
2023-07-05T10:43:27.798Z,1795.00
2023-07-05T10:44:27.740Z,1781.00
2023-07-05T10:45:27.721Z,1762.00
2023-07-05T10:46:27.712Z,1753.00
2023-07-05T10:47:27.665Z,1735.00
2023-07-05T10:48:27.590Z,1719.00
2023-07-05T10:49:27.541Z,1700.00
2023-07-05T10:50:27.495Z,1674.00
2023-07-05T10:51:27.482Z,1681.00
2023-07-05T10:52:27.430Z,1650.00
2023-07-05T10:53:29.066Z,1653.00
2023-07-05T10:54:27.356Z,1618.00
2023-07-05T10:55:27.329Z,1603.00
2023-07-05T10:56:27.266Z,1599.00
2023-07-05T10:57:27.354Z,1564.00
2023-07-05T10:58:27.188Z,1557.00
2023-07-05T10:59:29.562Z,1527.00
2023-07-05T11:00:32.154Z,1529.00
2023-07-05T11:01:28.236Z,1529.00
2023-07-05T11:02:27.095Z,1530.00
2023-07-05T11:03:27.079Z,1517.00
2023-07-05T11:04:27.007Z,1490.00
2023-07-05T11:05:28.030Z,1476.00
2023-07-05T11:06:27.105Z,1483.00
2023-07-05T11:07:27.101Z,1458.00
2023-07-05T11:08:27.089Z,1465.00
2023-07-05T11:09:27.072Z,1444.00
2023-07-05T11:10:27.092Z,1430.00
2023-07-05T11:11:27.072Z,1437.00
2023-07-05T11:12:27.079Z,1392.00
2023-07-05T11:13:27.078Z,1353.00
2023-07-05T11:14:27.066Z,1379.00
2023-07-05T11:15:27.080Z,1328.00
2023-07-05T11:16:27.138Z,1361.00
2023-07-05T11:17:27.097Z,1285.00
2023-07-05T11:18:28.867Z,1275.00
2023-07-05T11:19:27.025Z,1304.00
2023-07-05T11:20:26.978Z,1283.00
2023-07-05T11:21:26.959Z,1276.00
2023-07-05T11:22:26.910Z,1245.00
2023-07-05T11:23:26.953Z,1250.00
2023-07-05T11:24:26.824Z,1274.00
2023-07-05T11:25:26.872Z,1276.00
2023-07-05T11:26:26.775Z,1277.00
2023-07-05T11:27:26.739Z,1280.00
2023-07-05T11:28:26.771Z,1267.00
2023-07-05T11:29:26.737Z,1268.00
2023-07-05T11:30:26.622Z,1251.00
2023-07-05T11:31:26.610Z,1245.00
2023-07-05T11:32:26.564Z,1255.00
2023-07-05T11:33:26.576Z,1241.00
2023-07-05T11:34:26.544Z,1256.00
2023-07-05T11:35:26.455Z,1212.00
2023-07-05T11:36:26.384Z,1211.00
2023-07-05T11:37:26.483Z,1211.00
2023-07-05T11:38:26.341Z,1216.00
2023-07-05T11:39:26.286Z,1225.00
2023-07-05T11:40:26.258Z,1212.00
2023-07-05T11:41:26.199Z,1215.00
2023-07-05T11:42:26.188Z,1212.00
2023-07-05T11:43:26.130Z,1213.00
2023-07-05T11:44:26.179Z,1215.00
2023-07-05T11:45:26.087Z,1220.00
2023-07-05T11:46:26.030Z,1214.00
2023-07-05T11:47:26.066Z,1231.00
2023-07-05T11:48:25.946Z,1218.00
2023-07-05T11:49:25.912Z,1221.00
2023-07-05T11:50:25.866Z,1219.00
2023-07-05T11:52:25.796Z,1209.00
2023-07-05T11:53:25.764Z,1211.00
2023-07-05T11:54:25.728Z,1197.00
2023-07-05T11:55:25.703Z,1187.00
2023-07-05T11:56:25.628Z,1184.00
2023-07-05T11:57:25.602Z,1171.00
2023-07-05T11:58:25.572Z,1171.00
2023-07-05T11:59:25.559Z,1151.00
2023-07-05T12:00:25.486Z,1142.00
2023-07-05T12:01:25.496Z,1144.00
2023-07-05T12:02:25.436Z,1136.00
2023-07-05T12:03:25.503Z,1158.00
2023-07-05T12:04:25.339Z,1156.00
2023-07-05T12:05:25.311Z,1156.00
2023-07-05T12:06:25.281Z,1157.00
2023-07-05T12:07:25.242Z,1150.00
2023-07-05T12:08:25.187Z,1115.00